SiktMolnbas
>≥ 10km≥ 10km ≥ 2000ft≥ 2000ft
< 10km< 10km < 2000ft< 2000ft
< 8km< 8km < 1500ft< 1500ft
< 5km< 5km < 1000ft< 1000ft
< 3km< 3km < 500ft< 500ft

Nytt 18 jan 2017:

Nytt 17 jan 2017:

ESNQ (06:50 UTC)

Kiruna flygplats

METAR

ESNQ 210650Z AUTO 19006KT 160V220 9999 NCD 18/12 Q1014=

TAF

SHRACB

ESNQ 210630Z 2107/2115 21008KT CAVOK PROB40 2112/2115 SHRA BKN040CB=

ESNG (06:50 UTC)

Gällivare (Kavaheden), Lapland Airport

METAR

ESNG 210650Z AUTO 11005KT 060V150 9999 NCD 20/13 Q1014=

TAF

Ingen TAF hittades.

ESPA (06:50 UTC)

Luleå Airport (Kallax)

METAR

ESPA 210650Z 15006KT CAVOK 19/14 Q1015=

TAF

ESPA 210530Z 2106/2115 17005KT CAVOK=

ESNL (06:50 UTC)

Lycksele flygplats

METAR

ESNL 210650Z AUTO 12009KT 9999 FEW090/// 21/11 Q1015=

TAF

Ingen TAF hittades.

ESNU (06:50 UTC)

Umeå City Airport

METAR

ESNU 210650Z 15007KT CAVOK 20/13 Q1016=

TAF

ESNU 210530Z 2106/2115 VRB02KT CAVOK BECMG 2107/2109 18010KT=

ESNO (06:50 UTC)

Örnsköldsvik flygplats

METAR

ESNO 210650Z AUTO 13006KT 9999 NCD 20/13 Q1015=

TAF

Ingen TAF hittades.

ESNK (06:50 UTC)

Kramfors-Sollefteå flygplats

METAR

ESNK 210650Z AUTO 16006KT 9999 NCD 20/13 Q1014=

TAF

Ingen TAF hittades.

ESNN (06:50 UTC)

Sundsvall-Härnösands flygplats (Midlanda)

METAR

ESNN 210650Z 14006KT CAVOK 19/14 Q1014=

TAF

ESNN 210530Z 2106/2115 VRB02KT 9999 OVC004 BECMG 2106/2108 17010KT CAVOK=

ESNZ (06:50 UTC)

Åre Östersund Airport (Frösön)

METAR

ESNZ 210650Z 11009KT CAVOK 18/14 Q1012=

TAF

ESNZ 210530Z 2106/2115 13010KT CAVOK=

ESNS (06:50 UTC)

Skellefteå flygplats

METAR

ESNS 210650Z AUTO 19006KT 150V230 9999 R10/P1500N R28///// NCD 21/12 Q1016=

TAF

Ingen TAF hittades.

ESGT (06:50 UTC)

Trollhättan-Vänersborgs flygplats (Malöga flygplats)

METAR

ESGT 210650Z AUTO 17008KT 9999 BKN011/// BKN013/// OVC017/// 17/16 Q1010=

TAF

Ingen TAF hittades.

ESGG (06:50 UTC)

Göteborg-Landvetter flygplats

METAR

ESGG 210650Z 18008KT 9999 BKN007 BKN010 17/16 Q1010=

TAF

Ingen TAF hittades.

ESMT (06:50 UTC)

Halmstads flygplats

METAR

ESMT 210650Z AUTO 20011KT 9999 FEW010/// SCT013/// BKN026/// 19/16 Q1011=

TAF

Ingen TAF hittades.

ESTA (06:50 UTC)

Ängelholm-Helsingborg flygplats

METAR

ESTA 210650Z AUTO 22007KT 9999 FEW018/// SCT200/// 19/15 Q1011=

TAF

Ingen TAF hittades.

ESTL (06:50 UTC)

Ljungbyheds flygplats

METAR

ESTL 210650Z AUTO 20005KT 170V230 9999 ///////// 20/15 Q1012=

TAF

Ingen TAF hittades.

ESMS (06:50 UTC)

Malmö Airport

METAR

ESMS 210650Z 22004KT 200V260 9999 FEW016 20/15 Q1012=

TAF

ESMS 210507Z 2106/2206 22010KT 9999 FEW040 TEMPO 2106/2108 BKN008 BECMG 2112/2115 28012KT=

ESMK (06:50 UTC)

Kristianstad Airport

METAR

ESMK 210650Z AUTO 22005KT 9999 NCD 19/17 Q1012=

TAF

Ingen TAF hittades.

ESDF (06:50 UTC)

Ronneby flygplats

METAR

RA

ESDF 210650Z AUTO 02003KT 9999 -RA FEW012/// SCT064/// BKN088/// 16/16 Q1012 RERA=

TAF

Ingen TAF hittades.

ESMQ (06:50 UTC)

Kalmar Airport

METAR

RA

ESMQ 210650Z AUTO 27003KT 9999 -RA FEW085/// 18/16 Q1012=

TAF

Ingen TAF hittades.

ESMX (06:50 UTC)

Växjö, Smaland Airport

METAR

ESMX 210650Z 19003KT 9999 SCT006 BKN080 16/16 Q1012 RERA=

TAF

TSSHRACB

ESMX 210530Z 2106/2115 17008KT 9999 -RA SCT040 BKN070 TEMPO 2106/2110 SHRA BKN008 BKN040CB TEMPO 2110/2115 SHRA SCT030CB PROB40 2114/2115 TSRA=

ESGJ (06:50 UTC)

Jönköping Airport

METAR

DZ

ESGJ 210650Z AUTO 17004KT 140V200 9999 -DZ BKN006/// BKN055/// OVC074/// 15/15 Q1011=

TAF

Ingen TAF hittades.

ESSA (06:50 UTC)

Stockholm-Arlanda flygplats

METAR

ESSA 210650Z 13008KT CAVOK 19/13 Q1014 NOSIG=

TAF

SHRACB

ESSA COR 210536Z 2106/2206 13004KT CAVOK PROB40 2113/2117 SHRA BKN060CB PROB40 2122/2206 3000 BCFG=

ESSB (06:50 UTC)

Stockholm-Bromma flygplats

METAR

ESSB 210650Z AUTO 13009KT 9999 FEW150/// 21/13 Q1014=

TAF

Ingen TAF hittades.

ESKN (06:50 UTC)

Stockholm-Skavsta flygplats

METAR

ESKN 210650Z 15010KT 9999 SCT013 19/15 Q1013=

TAF

RACB

ESKN COR 210536Z 2106/2206 13010KT CAVOK TEMPO 2111/2115 4000 RA BKN014 BKN050CB TEMPO 2115/2118 SCT050CB PROB40 2122/2206 3000 BCFG=

ESSP (06:50 UTC)

Norrköping flygplats

METAR

ESSP 210650Z AUTO 11007KT 9999 OVC072/// 18/15 Q1012=

TAF

ESSP 210230Z 2103/2107 12005KT CAVOK=

ESSL (06:50 UTC)

Linköping - SAAB Flygplats

METAR

RA

ESSL 210650Z AUTO 14003KT 9999 -RA OVC072/// 17/16 Q1012=

TAF

ESSL 210330Z 2104/2106 12008KT 9999 FEW040 BKN080=

ESSV (06:50 UTC)

Visby flygplats

METAR

ESSV 210650Z 12010KT CAVOK 22/15 Q1013=

TAF

SHRACB

ESSV COR 210536Z 2106/2115 13010KT CAVOK PROB40 2109/2111 SHRA SCT050CB TEMPO 2111/2115 4000 RA BKN014 BKN050CB=

ESOW (06:50 UTC)

Stockholm-Västerås flygplats

METAR

ESOW 210650Z AUTO 13009KT 100V160 9999 SCT180/// 20/14 Q1013=

TAF

SHRACB

ESOW 210630Z 2107/2114 15008KT CAVOK PROB40 2112/2114 SHRA BKN060CB=

ESOE (06:50 UTC)

Örebro flygplats

METAR

ESOE 210650Z AUTO 12004KT 9999 OVC064/// 17/13 Q1012=

TAF

Ingen TAF hittades.

ESOK (06:50 UTC)

Karlstad Airport

METAR

DZ

ESOK 210650Z AUTO 12007KT 9999 R03/P1500N R21///// -DZ FEW015/// OVC022/// 16/14 Q1010=

TAF

Ingen TAF hittades.

ESSD (06:50 UTC)

Borlänge, Dala Airport

METAR

ESSD 210650Z AUTO 13009KT 9999 FEW100/// SCT170/// 18/11 Q1012=

TAF

Ingen TAF hittades.

ESGR (06:50 UTC)

Skövde flygplats

METAR

RA

ESGR 210650Z AUTO 15007KT 9999 -RA BKN092/// 15/15 Q1011=

TAF

Ingen TAF hittades.

ESIB (06:50 UTC)

Såtenäs

METAR

ESIB 210650Z AUTO 17008KT 9999 BKN022/// 17/17 Q1010=

TAF

Ingen TAF hittades.

ESNV (06:50 UTC)

Vilhelmina flygplats

METAR

ESNV 210650Z AUTO 11005KT 9999 BKN061/// OVC078/// 17/12 Q1014=

TAF

Ingen TAF hittades.

ESST (06:50 UTC)

Torsby flygplats (Fryklanda)

METAR

ESST 210650Z AUTO 13008KT 9999 FEW026/// BKN037/// BKN048/// 17/14 Q1010 RERA=

TAF

Ingen TAF hittades.

ESUT (06:50 UTC)

Hemavans flygplats

METAR

ESUT 210650Z AUTO 15011KT 9999 SCT098/// 18/12 Q1012=

TAF

Ingen TAF hittades.

ESNX (06:50 UTC)

Arvidsjaur flygplats

METAR

ESNX 210650Z AUTO 12006KT 9999 FEW200/// 20/11 Q1015=

TAF

Ingen TAF hittades.

ESIA (06:50 UTC)

Karlsborg

METAR

SHRA

ESIA 210650Z AUTO 15006KT 9999 -SHRA SCT070/// BKN090/// 16/14 Q1012 RESHRA=

TAF

Ingen TAF hittades.

ESUP (06:50 UTC)

Pajala

METAR

ESUP 210650Z AUTO 19006KT 150V240 //// R11///// SCT100/// 19/13 Q////=

TAF

Ingen TAF hittades.

ESPE (06:50 UTC)

Vidsel

METAR

ESPE 210650Z AUTO 10004KT 070V140 9999 NCD 20/14 Q1015=

TAF

Ingen TAF hittades.

ESCM (06:50 UTC)

Uppsala

METAR

ESCM 210650Z AUTO 14008KT 9999 SCT180/// 20/14 Q1014=

TAF

Ingen TAF hittades.

ESKM (06:50 UTC)

Mora/Siljan

METAR

ESKM 210650Z AUTO 10008KT 070V130 9999 FEW140/// 18/14 Q1012=

TAF

Ingen TAF hittades.

EKRN (06:50 UTC)

Bornholm Airport

METAR

EKRN 210650Z AUTO 25003KT 9999 SCT076/// 19/17 Q1013=

TAF

EKRN 210523Z 2106/2115 25012KT 9999 FEW030=

EFIV (06:50 UTC)

Ivalo Airport

METAR

EFIV 210650Z AUTO 24008KT CAVOK 21/11 Q1015=

TAF

Ingen TAF hittades.

EFKT (06:50 UTC)

Kittilä Airport

METAR

EFKT 210650Z AUTO 16007KT 140V200 CAVOK 20/12 Q1015=

TAF

TCU

EFKT 210225Z 2103/2107 19004KT CAVOK PROB30 2103/2107 FEW040TCU=

EFRO (06:50 UTC)

Rovaniemi Airport

METAR

EFRO 210650Z AUTO 22011KT CAVOK 19/09 Q1017=

TAF

TCU

EFRO 210530Z 2106/2206 22005KT CAVOK TEMPO 2106/2112 FEW040TCU=

EFKE (06:50 UTC)

Kemi-Tornio Airport

METAR

EFKE 210650Z AUTO 19008KT CAVOK 20/11 Q1017=

TAF

CB

EFKE AMD 210624Z 2106/2115 18008KT CAVOK TEMPO 2106/2108 9999 FEW040CB BKN070=

EFKS (06:50 UTC)

Kuusamo Airport

METAR

EFKS 210650Z AUTO 29005KT 240V340 CAVOK 20/09 Q1017=

TAF

Ingen TAF hittades.

EFOU (06:50 UTC)

Oulu Airport

METAR

EFOU 210650Z AUTO 16003KT 120V220 CAVOK 21/10 Q1017=

TAF

EFOU 210530Z 2106/2206 15006KT CAVOK=

EFKI (06:50 UTC)

Kajaani Airport

METAR

EFKI 210650Z VRB01KT CAVOK 20/11 Q1017=

TAF

EFKI 210530Z 2106/2115 VRB02KT CAVOK=

EFKK (06:50 UTC)

Kokkola-Pietarsaari/Kruunupyy Airport

METAR

EFKK 210650Z AUTO 16004KT 100V190 CAVOK 22/11 Q1017=

TAF

EFKK 210530Z 2106/2115 13005KT CAVOK=

EFVA (06:50 UTC)

Vaasa Airport

METAR

EFVA 210650Z AUTO 13003KT 070V180 CAVOK 22/13 Q1016=

TAF

EFVA 210530Z 2106/2206 15004KT CAVOK=

EFKU (06:50 UTC)

Kuopio Airport

METAR

EFKU 210650Z AUTO VRB02KT CAVOK 22/10 Q1018=

TAF

EFKU 210530Z 2106/2206 15004KT CAVOK=

EFJY (06:50 UTC)

Jyväskylä Airport

METAR

EFJY 210650Z AUTO VRB03KT CAVOK 22/11 Q1017=

TAF

BRTCU

EFJY 210529Z 2106/2206 VRB02KT CAVOK PROB30 TEMPO 2109/2116 FEW060TCU PROB30 2200/2203 2000 BR=

EFTP (06:50 UTC)

Tampere-Pirkkala Airport

METAR

EFTP 210650Z AUTO 13003KT 090V190 CAVOK 23/11 Q1017=

TAF

TCU

EFTP 210529Z 2106/2206 12003KT CAVOK PROB30 TEMPO 2111/2117 FEW070TCU=

EFPO (06:50 UTC)

Pori Airport

METAR

EFPO 210650Z AUTO VRB02KT CAVOK 22/11 Q1016=

TAF

Ingen TAF hittades.

EFTU (06:50 UTC)

Turku Airport

METAR

EFTU 210650Z AUTO 11003KT 070V170 CAVOK 22/09 Q1016=

TAF

CB

EFTU 210529Z 2106/2206 11004KT CAVOK PROB30 2203/2206 SCT050CB=

EFHK (06:50 UTC)

Helsinki-Vantaa Airport

METAR

EFHK 210650Z VRB02KT CAVOK 24/13 Q1017 NOSIG=

TAF

EFHK 210529Z 2106/2206 36002KT CAVOK BECMG 2108/2110 15010KT BECMG 2120/2122 06005KT=

EFMA (06:50 UTC)

Mariehamn Airport

METAR

EFMA 210650Z AUTO 14011KT CAVOK 21/11 Q1016=

TAF

EFMA 210529Z 2106/2115 14005KT CAVOK=

EKSB (06:50 UTC)

Sønderborg Airport

METAR

EKSB 210650Z AUTO 25010G20KT 210V280 9999NDV BKN011/// 18/16 Q1012=

TAF

Ingen TAF hittades.

EKSP (06:50 UTC)

Vojens Airport

METAR

EKSP 210650Z 24012KT 9999 FEW009 SCT014 BKN015 17/15 Q1012=

TAF

SHRABRCB

EKSP 210500Z 2106/2206 22010KT 9999 FEW012 BKN020 TEMPO 2106/2113 5000 -SHRA BKN006 FEW020CB BECMG 2107/2110 26015G27KT BECMG 2116/2119 24007KT TEMPO 2200/2206 4000 BR BKN006=

EKEB (06:58 UTC)

Esbjerg Airport

METAR

RA

EKEB 210658Z 23011KT 3000 RA BKN006 16/16 Q1011=

TAF

Ingen TAF hittades.

EKYT (06:50 UTC)

Aalborg Airport

METAR

EKYT 210650Z AUTO 21007KT 9999 FEW008/// BKN010/// BKN020/// 18/17 Q1009=

TAF

TSSHRACB

EKYT 210500Z 2106/2206 20008KT 9999 BKN020 TEMPO 2106/2116 3000 SHRA BKN008 SCT020CB PROB40 2106/2116 TSRA BECMG 2110/2113 27015G25KT BECMG 2117/2120 25012KT TEMPO 2200/2206 BKN008=

EKKA (06:59 UTC)

Karup Airport

METAR

SHRA

EKKA 210659Z 21007KT 4000 -SHRA BKN008 OVC018 17/16 Q1010=

TAF

SHRABRCB

EKKA 210500Z 2106/2206 21008KT 9999 FEW010 BKN020 TEMPO 2106/2115 3000 SHRA BR BKN004 SCT020CB BECMG 2109/2112 27012G22KT BECMG 2116/2119 24008KT TEMPO 2200/2206 4000 BR BKN006=

EKBI (06:50 UTC)

Billund Airport

METAR

EKBI 210650Z AUTO 22009KT 180V240 8000 OVC008/// 16/15 Q1011=

TAF

SHRABRTCU

EKBI 210507Z 2106/2206 19010KT 8000 -SHRA BKN008 SCT015TCU TEMPO 2106/2111 4000 BR BKN004 BECMG 2111/2114 28012KT NSW SCT015 TEMPO 2123/2204 3000 BR=

EKVD (06:50 UTC)

Kolding Airport

METAR

SHRA

EKVD 210650Z 24011KT 9999 -SHRA BKN006 17/15 Q1011=

TAF

Ingen TAF hittades.

EKOD (06:50 UTC)

Odense Airport

METAR

EKOD 210650Z 23011KT 9999 SCT010 BKN014 BKN025 18/17 Q1012=

TAF

CB

EKOD 210652Z 2107/2115 22012KT 9999 BKN015 TEMPO 2107/2108 BKN010 TEMPO 2108/2115 BKN012 FEW015CB=

EKCH (06:50 UTC)

Copenhagen Airport, Kastrup

METAR

EKCH 210650Z 23010KT 9999 FEW015 BKN047 18/16 Q1013 RC/ TEMPO RA SCT015CB=

TAF

SHRACB

EKCH AMD 210627Z 2106/2206 18008KT 9999 FEW020 BECMG 2106/2108 24012KT TEMPO 2106/2108 SHRA BKN010 SCT015CB TEMPO 2108/2116 SHRA SCT015CB=

EKRK (06:50 UTC)

Copenhagen Airport, Roskilde

METAR

EKRK 210650Z AUTO 23005KT 9999 OVC007/// 18/18 Q1012=

TAF

CB

EKRK AMD 210651Z 2106/2115 23010KT 9999 FEW008 TEMPO 2106/2108 BKN007 TEMPO 2108/2115 SCT015CB=

ENRY (06:50 UTC)

Moss flygplats, Rygge

METAR

DZ

ENRY 210650Z AUTO 12008KT 6000NDV -DZ BKN005/// OVC008/// 16/15 Q1008 RERA REDZ=

TAF

TSSHRAFGCB

ENRY 210500Z 2106/2206 12005KT 9999 SCT003 BKN012 TEMPO 2106/2112 2000 SHRA BR BKN004 SCT020CB PROB30 TEMPO 2106/2112 TS BECMG 2108/2110 20010KT PROB30 2113/2118 4000 SHRA TS SCT015CB PROB40 2122/2206 VRB05KT 0500 FG VV001=

ENGM (06:50 UTC)

Oslo flygplats, Gardermoen

METAR

RABR

ENGM 210650Z 06003KT 350V140 3500 RA BR SCT004 BKN008 15/14 Q1008 TEMPO 6000 NSW BKN004=

TAF

TSSHRAFGCB

ENGM 210500Z 2106/2206 VRB05KT 8000 -RA BKN015 TEMPO 2106/2115 3000 SHRA BR BKN004 SCT020CB BECMG 2106/2108 BKN012 PROB30 TEMPO 2106/2115 TSRA BECMG 2110/2112 20010KT BECMG 2113/2115 SCT020 TEMPO 2115/2119 4000 SHRA TS BKN010 SCT015CB BECMG 2119/2121 VRB05KT PROB40 2123/2206 0500 FG VV001=

ENTO (06:50 UTC)

Sandefjord flygplats, Torp

METAR

RA

ENTO 210650Z 18006KT 9000 -RA BKN002 BKN006 17/16 Q1008 TEMPO SCT002 BKN005=

TAF

TSSHRABRCB

ENTO 210500Z 2106/2206 17008KT 9999 -RA SCT003 BKN008 TEMPO 2106/2112 2000 SHRA BR BKN003 SCT020CB PROB30 TEMPO 2106/2112 TS BECMG 2112/2114 SCT020 PROB40 2112/2117 4000 SHRA TS SCT015CB BECMG 2118/2120 27010KT=

ENCN (06:50 UTC)

Kristiansand flygplats, Kjevik

METAR

RA

ENCN 210650Z 22003KT 9999 -RA FEW002 SCT006 BKN010 16/16 Q1008=

TAF

TSSHRABRCB

ENCN 210500Z 2106/2115 20005KT 8000 -RA SCT004 BKN010 TEMPO 2106/2112 2000 SHRA BR BKN004 SCT020CB PROB30 2106/2112 TS BECMG 2108/2110 BKN020 BECMG 2113/2115 28012KT=

ENZV (06:50 UTC)

Stavanger-Sola flygplats

METAR

RABR

ENZV 210650Z 23005KT 3500 DZRA BR OVC002 15/14 Q1008 TEMPO 2000 RA BR SCT002 BKN006=

TAF

RAFG

ENZV 210500Z 2106/2206 17006KT 7000 -DZ SCT007 BKN012 TEMPO 2106/2109 1500 DZRA BKN004 PROB30 2106/2109 0800 FG VV002 BECMG 2108/2111 29010KT SCT012 BKN018 BECMG 2117/2119 VRB05KT BECMG 2203/2206 15012KT -RA BKN014=

ENHD (06:50 UTC)

Haugesund flygplats, Karmøy

METAR

RAFG

ENHD 210650Z 24004KT 0450 R13/0900N R31/1400U -RADZ FG VV002 14/13 Q1007=

TAF

FG

ENHD 210500Z 2106/2115 23007KT 0200 FG VV001 TEMPO 2106/2109 4000 BR SCT003 BKN005 BECMG 2109/2112 29015KT 9999 NSW BKN012 BECMG 2113/2115 25005KT=

ENBR (06:50 UTC)

Bergen flygplats, Flesland

METAR

DZBR

ENBR 210650Z 20006KT 3500 -DZ BR VV001 14/14 Q1007 TEMPO 1500 -DZ BR VV003 RMK WIND 1200FT 18008KT=

TAF

DZFG

ENBR 210500Z 2106/2206 23007KT 4000 -DZ BR SCT005 BKN008 TEMPO 2106/2109 0500 FG VV001 BECMG 2112/2115 29010KT 9999 NSW SCT012 BKN020 BECMG 2116/2118 VRB06KT BECMG 2200/2203 15012KT=

ENML (06:50 UTC)

Molde flygplats, Årø

METAR

ENML 210650Z AUTO 21003KT 170V240 9999NDV BKN080/// OVC094/// 17/15 Q1006=

TAF

Ingen TAF hittades.

ENKB (06:50 UTC)

Kristiansund flygplats, Kvernberget

METAR

ENKB 210650Z AUTO VRB02KT 9999 BKN066/// OVC080/// 17/13 Q1006 RMK WIND 745FT 35006KT=

TAF

RA

ENKB 210500Z 2108/2115 VRB07KT 9999 -RA SCT040 BKN080 BECMG 2112/2114 25010KT 4000 -RADZ BKN007=

ENRO (06:50 UTC)

Røros flygplats

METAR

ENRO 210650Z AUTO 11014KT 9999NDV FEW027/// SCT086/// OVC110/// 17/12 Q1010=

TAF

Ingen TAF hittades.

ENVA (06:50 UTC)

Trondheim flygplats, Værnes

METAR

ENVA 210650Z 11006KT 060V140 CAVOK 18/14 Q1008 NOSIG RMK WIND 670FT 15013KT=

TAF

SHRABRCB

ENVA 210500Z 2106/2206 VRB07KT 9999 -SHRA FEW030 BKN080 TEMPO 2112/2118 SHRA BKN030CB TEMPO 2118/2206 3000 SHRA BR BKN005 SCT020CB=

ENOL (06:50 UTC)

Ørland flygplats

METAR

SHRA

ENOL 210650Z 12010KT 9999 -SHRA FEW030 BKN080 18/12 Q1006 NOSIG=

TAF

SHRABRCB

ENOL 210500Z 2106/2206 13015KT 9999 FEW025 BKN100 TEMPO 2112/2120 SHRA BKN030CB BECMG 2114/2116 27008KT BECMG 2117/2120 BKN014 TEMPO 2120/2206 1500 RADZ BR BKN008=

ENBN (06:50 UTC)

Brønnøysund flygplats, Brønnøy

METAR

ENBN 210650Z AUTO 15013G23KT 120V180 9999NDV FEW046/// 21/12 Q1009=

TAF

Ingen TAF hittades.

ENBO (06:50 UTC)

Bodö flygplats

METAR

ENBO 210650Z 09014KT CAVOK 21/13 Q1010=

TAF

TSCB

ENBO 210500Z 2106/2206 09008KT 9999 SCT040 TEMPO 2109/2121 SCT030CB PROB30 TEMPO 2112/2118 TSRA=

ENAN (06:50 UTC)

Andøya flygplats

METAR

ENAN 210650Z AUTO 11005KT 4900 NCD 12/11 Q1011=

TAF

FG

ENAN 210500Z 2106/2206 04008KT 9999 FEW002 SCT040 TEMPO 2106/2112 0500 FG VV001=

ENEV (06:50 UTC)

Harstad-Narvik flygplats

METAR

ENEV 210650Z AUTO 00000KT 9999 NCD 20/14 Q1011 RMK WIND 1400FT 11009KT=

TAF

TSCB

ENEV 210500Z 2106/2115 VRB05KT 9999 SCT040 PROB30 TEMPO 2112/2115 12012KT TSRA BKN030CB=

ENDU (06:50 UTC)

Bardufoss flygplats

METAR

ENDU 210650Z AUTO 00000KT 9999 NCD 20/15 Q1012 RMK WIND 1100FT 13007KT WIND 2200FT 15011KT=

TAF

TSCB

ENDU 210500Z 2106/2206 VRB05KT 9999 SCT040 PROB30 TEMPO 2112/2121 11012KT TSRA BKN030CB=

ENTC (06:50 UTC)

Tromsø flygplats

METAR

ENTC 210650Z VRB02KT CAVOK 16/11 Q1012 NOSIG RMK WIND 2600FT 17013KT=

TAF

CB

ENTC 210500Z 2106/2206 35008KT 9999 SCT040 TEMPO 2112/2121 FEW030CB=

ENAT (06:50 UTC)

Alta flygplats

METAR

ENAT 210650Z VRB02KT CAVOK 17/11 Q1013 RMK WIND 700FT 12006KT=

TAF

TSCB

ENAT 210500Z 2106/2115 VRB05KT 9999 SCT040 PROB40 TEMPO 2111/2115 15015KT TSRA BKN030CB=

ENNA (06:50 UTC)

Lakselv flygplats

METAR

ENNA 210650Z AUTO 02004KT 340V040 9999 SCT098/// 17/11 Q1015 RMK WIND 1800FT 17015KT=

TAF

TSCB

ENNA 210500Z 2106/2206 VRB05KT 9999 FEW020 SCT040 PROB40 TEMPO 2112/2121 18015KT 4000 TSRA FEW008 BKN030CB=

ENHF (06:50 UTC)

Hammerfest flygplats

METAR

RA

ENHF 210650Z AUTO VRB03KT 9999 -RA FEW036/// SCT082/// 16/09 Q1013 RERA RMK WIND 1254FT 15009KT=

TAF

Ingen TAF hittades.

ENKR (06:50 UTC)

Kirkenes Airport, Høybuktmoen

METAR

ENKR 210650Z AUTO VRB03KT 9999 OVC082/// 14/10 Q1016 RMK WIND 731FT 08008KT=

TAF

ENKR 210500Z 2106/2115 VRB05KT 9999 SCT040=

ENSB (06:50 UTC)

Svalbard Airport, Longyear

METAR

ENSB 210650Z 25008KT 9999 FEW012 SCT040 BKN150 06/03 Q1013 RMK WIND 1400FT 25007KT=

TAF

RABR

ENSB 210500Z 2106/2206 26015KT 9999 -RA FEW007 BKN020 TEMPO 2106/2206 4000 BR BKN007=